Tuesday, August 14, 2018, 11:51 PM CDT
Back to Local

KDKB, De Kalb, De Kalb Taylor Municipal Airport

Location: Dekalb, IL, United States Lat: 41.932
Local Time: 11:51 PM CDT ( 4:51 GMT) Lon: -88.708
Time Zone: US/Central Elev: 915 ft

Show me the last for .
Show Decoded

2018-08-14 23:35 METAR KDKB 150435Z AUTO 15005KT 10SM CLR 21/19 A2997 RMK AO2 T02110193 =
2018-08-14 23:15 METAR KDKB 150415Z AUTO 15004KT 10SM CLR 20/19 A2997 RMK AO2 T02030194 =
2018-08-14 22:55 METAR KDKB 150355Z AUTO 14003KT 10SM CLR 21/20 A2998 RMK AO2 T02120197 =
2018-08-14 22:35 METAR KDKB 150335Z AUTO 00000KT 10SM CLR 22/20 A2998 RMK AO2 T02150202 =
2018-08-14 22:15 METAR KDKB 150315Z AUTO 00000KT 10SM CLR 22/21 A2998 RMK AO2 T02220205 =
2018-08-14 21:55 METAR KDKB 150255Z AUTO 00000KT 10SM CLR 22/20 A2999 RMK AO2 T02200204 =
2018-08-14 21:35 METAR KDKB 150235Z AUTO 00000KT 10SM CLR 23/20 A2998 RMK AO2 T02280201 =
2018-08-14 21:15 METAR KDKB 150215Z AUTO 00000KT 10SM CLR 23/20 A2998 RMK AO2 T02310201 =
2018-08-14 20:55 METAR KDKB 150155Z AUTO 00000KT 10SM CLR 23/21 A2998 RMK AO2 T02320205 =
2018-08-14 20:35 METAR KDKB 150135Z AUTO 00000KT 7SM CLR 24/20 A2997 RMK AO2 T02350203 =
2018-08-14 20:15 METAR KDKB 150115Z AUTO 00000KT 10SM CLR 24/20 A2996 RMK AO2 T02380200 =
2018-08-14 19:55 METAR KDKB 150055Z AUTO 17003KT 10SM CLR 24/20 A2996 RMK AO2 T02440201 =
2018-08-14 19:35 METAR KDKB 150035Z AUTO 00000KT 10SM CLR 25/21 A2996 RMK AO2 T02530205 =
2018-08-14 19:15 METAR KDKB 150015Z AUTO 00000KT 10SM CLR 26/21 A2997 RMK AO2 LTG DSNT SW
                 T02570208 =
2018-08-14 18:55 METAR KDKB 142355Z AUTO 19004KT 10SM CLR 26/20 A2997 RMK AO2 T02600201 10293
                 20260 =
2018-08-14 18:35 METAR KDKB 142335Z AUTO 20004KT 10SM CLR 27/20 A2997 RMK AO2 T02680197 =
2018-08-14 18:15 METAR KDKB 142315Z AUTO 20006KT 10SM CLR 28/20 A2997 RMK AO2 T02770199 =
2018-08-14 17:55 METAR KDKB 142255Z AUTO 20005KT 10SM CLR 28/20 A2998 RMK AO2 T02800199 =
2018-08-14 17:35 METAR KDKB 142235Z AUTO 19005KT 10SM CLR 28/20 A2997 RMK AO2 T02770198 =
2018-08-14 17:15 METAR KDKB 142215Z AUTO 16004KT 10SM CLR 28/20 A2998 RMK AO2 T02780197 =
2018-08-14 16:55 METAR KDKB 142155Z AUTO 17005KT 10SM CLR 28/20 A2998 RMK AO2 T02800197 =
2018-08-14 16:35 METAR KDKB 142135Z AUTO 21004KT 10SM CLR 28/20 A2999 RMK AO2 T02810196 =
2018-08-14 16:15 METAR KDKB 142115Z AUTO 23006KT 10SM SCT041 28/20 A2998 RMK AO2 T02820200 =
2018-08-14 15:55 METAR KDKB 142055Z AUTO 23005KT 10SM CLR 28/20 A2999 RMK AO2 T02790197 =
2018-08-14 15:35 METAR KDKB 142035Z AUTO 20005KT 10SM CLR 28/19 A2999 RMK AO2 T02840194 =
2018-08-14 15:15 METAR KDKB 142015Z AUTO 21004KT 10SM CLR 28/19 A3000 RMK AO2 T02800194 =
2018-08-14 14:55 METAR KDKB 141955Z AUTO 19007KT 10SM SCT040 28/20 A3000 RMK AO2 T02810201 =
2018-08-14 14:35 METAR KDKB 141935Z AUTO 22009KT 10SM SCT042 SCT048 SCT060 28/20 A3000 RMK AO2
                 T02840200 =
2018-08-14 14:15 METAR KDKB 141915Z AUTO 21008KT 10SM BKN042 BKN050 29/20 A3001 RMK AO2 T02900198
                 =
2018-08-14 13:50 METAR KDKB 141850Z AUTO 22009KT 10SM SCT046 SCT050 SCT070 29/21 A3001 RMK AO2
                 T02880205 =
2018-08-14 13:35 METAR KDKB 141835Z AUTO 22005KT 10SM SCT037 SCT050 SCT070 29/20 A3002 RMK AO2
                 T02870197 =
2018-08-14 13:15 METAR KDKB 141815Z AUTO 23007KT 10SM BKN037 BKN050 BKN070 28/20 A3002 RMK AO2
                 T02790202 =
2018-08-14 12:55 METAR KDKB 141755Z AUTO 24008KT 10SM BKN035 OVC050 29/20 A3002 RMK AO2 T02860204
                 10289 20184 =
2018-08-14 12:30 METAR KDKB 141730Z AUTO 21005KT 10SM BKN033 OVC047 29/20 A3002 RMK AO2 T02870204
                 =
2018-08-14 12:15 METAR KDKB 141715Z AUTO 26004KT 10SM BKN033 OVC047 28/22 A3002 RMK AO2 T02810216
                 =
2018-08-14 11:55 METAR KDKB 141655Z AUTO 27004KT 10SM SCT035 SCT041 BKN047 28/20 A3002 RMK AO2
                 T02750204 =
2018-08-14 11:35 METAR KDKB 141635Z AUTO 25004KT 10SM SCT033 BKN044 27/20 A3002 RMK AO2 T02730203
                 =
2018-08-14 11:15 METAR KDKB 141615Z AUTO 24004KT 10SM SCT044 28/21 A3003 RMK AO2 T02750208 =
2018-08-14 10:55 METAR KDKB 141555Z AUTO 21005KT 10SM CLR 27/21 A3003 RMK AO2 T02730209 =
2018-08-14 10:35 METAR KDKB 141535Z AUTO 26005KT 10SM CLR 27/21 A3003 RMK AO2 T02670207 =
2018-08-14 10:15 METAR KDKB 141515Z AUTO 26006KT 10SM CLR 26/21 A3003 RMK AO2 T02640205 =
2018-08-14 09:55 METAR KDKB 141455Z AUTO 24006KT 10SM CLR 26/21 A3003 RMK AO2 T02620205 =
2018-08-14 09:35 METAR KDKB 141435Z AUTO 24005KT 10SM CLR 26/21 A3003 RMK AO2 T02560209 =
2018-08-14 09:15 METAR KDKB 141415Z AUTO 25005KT 10SM CLR 25/21 A3003 RMK AO2 T02510205 =
2018-08-14 08:55 METAR KDKB 141355Z AUTO 25006KT 10SM CLR 25/20 A3003 RMK AO2 T02450198 =
2018-08-14 08:35 METAR KDKB 141335Z AUTO 25006KT 10SM CLR 24/20 A3003 RMK AO2 T02420200 =
2018-08-14 08:15 METAR KDKB 141315Z AUTO 25006KT 10SM CLR 24/20 A3003 RMK AO2 T02350196 =
2018-08-14 07:55 METAR KDKB 141255Z AUTO 25005KT 10SM CLR 22/19 A3003 RMK AO2 T02230188 =
2018-08-14 07:35 METAR KDKB 141235Z AUTO 24004KT 10SM CLR 21/18 A3003 RMK AO2 T02120179 =
2018-08-14 07:15 METAR KDKB 141215Z AUTO 00000KT 7SM CLR 19/18 A3002 RMK AO2 T01910176 =
2018-08-14 06:55 METAR KDKB 141155Z AUTO 00000KT 10SM CLR 18/17 A3002 RMK AO2 T01820166 10205
                 20173 =
2018-08-14 06:35 METAR KDKB 141135Z AUTO 00000KT 10SM CLR 18/16 A3002 RMK AO2 T01800162 =
2018-08-14 06:15 METAR KDKB 141115Z AUTO 00000KT 10SM CLR 18/16 A3002 RMK AO2 T01770160 =
2018-08-14 05:55 METAR KDKB 141055Z AUTO 00000KT 10SM CLR 17/16 A3002 RMK AO2 T01730161 =
2018-08-14 05:35 METAR KDKB 141035Z AUTO 00000KT 10SM CLR 18/16 A3002 RMK AO2 T01800162 =
2018-08-14 05:15 METAR KDKB 141015Z AUTO 00000KT 10SM CLR 18/16 A3002 RMK AO2 T01790163 =
2018-08-14 04:55 METAR KDKB 140955Z AUTO 20003KT 10SM CLR 18/17 A3001 RMK AO2 T01780165 =
2018-08-14 04:35 METAR KDKB 140935Z AUTO 23003KT 10SM CLR 20/17 A3002 RMK AO2 T02020166 =
2018-08-14 04:15 METAR KDKB 140915Z AUTO 25004KT 10SM CLR 20/17 A3001 RMK AO2 T02010169 =
2018-08-14 03:55 METAR KDKB 140855Z AUTO 24005KT 10SM CLR 20/17 A3001 RMK AO2 T02020170 =
2018-08-14 03:35 METAR KDKB 140835Z AUTO 21003KT 10SM CLR 19/17 A3002 RMK AO2 T01870170 =
2018-08-14 03:15 METAR KDKB 140815Z AUTO 00000KT 10SM CLR 19/17 A3002 RMK AO2 T01900170 =
2018-08-14 02:55 METAR KDKB 140755Z AUTO 00000KT 10SM CLR 19/17 A3002 RMK AO2 T01900171 =
2018-08-14 02:35 METAR KDKB 140735Z AUTO 00000KT 10SM CLR 20/17 A3003 RMK AO2 T01950172 =
2018-08-14 02:15 METAR KDKB 140715Z AUTO 23003KT 10SM CLR 20/17 A3002 RMK AO2 T02000172 =
2018-08-14 01:55 METAR KDKB 140655Z AUTO 00000KT 10SM CLR 20/17 A3003 RMK AO2 T01980173 =
2018-08-14 01:35 METAR KDKB 140635Z AUTO 23003KT 10SM CLR 20/18 A3003 RMK AO2 T01990175 =
2018-08-14 01:15 METAR KDKB 140615Z AUTO 22003KT 10SM CLR 19/17 A3004 RMK AO2 T01930174 =
2018-08-14 00:55 METAR KDKB 140555Z AUTO 24003KT 10SM CLR 20/18 A3004 RMK AO2 T01980178 10270
                 20198 402990151 =
2018-08-14 00:35 METAR KDKB 140535Z AUTO 23003KT 10SM CLR 20/18 A3004 RMK AO2 T02030181 =
2018-08-14 00:15 METAR KDKB 140515Z AUTO 21003KT 10SM CLR 21/19 A3004 RMK AO2 T02050185 =
2018-08-13 23:55 METAR KDKB 140455Z AUTO 18003KT 10SM CLR 20/19 A3004 RMK AO2 T02020186 =

Support USWX by starting your Amazon purchase here.